Time;durP1;ratioP1;P1;durP2;ratioP2;P2;SDS_P1;SDS_P2;PMS_P1;PMS_P2;Temp;Humidity;BMP_temperature;BMP_pressure;BME280_temperature;BME280_humidity;BME280_pressure;Samples;Min_cycle;Max_cycle;Signal;HPM_P1;HPM_P2
2023/05/25 00:01:42;;;;;;;5.30;2.73;;;11.70;99.90;;;;;;5036440;28;20163;-74
2023/05/25 00:04:09;;;;;;;5.33;3.60;;;11.80;99.90;;;;;;5036515;28;20416;-75
2023/05/25 00:06:36;;;;;;;10.20;4.00;;;11.80;99.90;;;;;;5036041;28;20472;-74
2023/05/25 00:09:02;;;;;;;3.57;2.80;;;11.90;99.90;;;;;;5036805;28;20413;-74
2023/05/25 00:11:27;;;;;;;4.47;3.63;;;12.00;99.90;;;;;;5036429;28;20463;-74
2023/05/25 00:13:53;;;;;;;6.50;3.53;;;12.10;99.90;;;;;;5036102;28;20404;-74
2023/05/25 00:16:19;;;;;;;5.23;3.00;;;12.10;99.90;;;;;;5018593;28;20634;-75
2023/05/25 00:18:47;;;;;;;7.93;3.97;;;12.10;99.90;;;;;;5036876;28;20210;-74
2023/05/25 00:21:13;;;;;;;6.57;3.40;;;12.00;99.90;;;;;;5017899;28;20175;-74
2023/05/25 00:23:38;;;;;;;4.80;3.50;;;12.00;99.90;;;;;;5035931;28;20433;-73
2023/05/25 00:26:04;;;;;;;5.80;3.60;;;12.00;99.90;;;;;;5035643;28;20218;-74
2023/05/25 00:28:29;;;;;;;6.47;3.80;;;11.90;99.90;;;;;;5034056;28;20184;-73
2023/05/25 00:30:55;;;;;;;3.80;3.30;;;12.00;99.90;;;;;;5035746;28;20613;-74
2023/05/25 00:33:21;;;;;;;5.60;3.03;;;12.10;99.90;;;;;;5017862;28;20178;-74
2023/05/25 00:35:46;;;;;;;8.10;3.83;;;12.10;99.90;;;;;;5035157;28;20203;-74
2023/05/25 00:38:16;;;;;;;5.23;3.20;;;12.20;99.90;;;;;;5035670;28;20170;-74
2023/05/25 00:40:42;;;;;;;6.80;3.60;;;12.20;99.90;;;;;;5017774;28;20239;-74
2023/05/25 00:43:09;;;;;;;4.30;3.13;;;12.20;99.90;;;;;;5035620;28;20413;-74
2023/05/25 00:45:34;;;;;;;6.07;3.67;;;12.20;99.90;;;;;;5035443;28;20448;-74
2023/05/25 00:48:00;;;;;;;4.90;3.40;;;12.30;99.90;;;;;;5035487;28;20406;-74
2023/05/25 00:50:40;;;;;;;5.30;3.13;;;12.40;99.90;;;;;;5035293;28;20179;-74
2023/05/25 00:53:07;;;;;;;6.07;3.50;;;12.50;99.90;;;;;;5035469;28;20153;-74
2023/05/25 00:55:37;;;;;;;8.60;3.73;;;12.70;99.90;;;;;;5034948;28;20434;-74
2023/05/25 00:58:05;;;;;;;3.90;3.50;;;12.70;99.90;;;;;;5018930;28;20922;-74
2023/05/25 01:00:32;;;;;;;8.77;3.90;;;12.60;99.90;;;;;;4997716;28;20465;-75
2023/05/25 01:02:59;;;;;;;6.97;3.53;;;12.60;99.90;;;;;;5015162;28;20418;-74
2023/05/25 01:05:29;;;;;;;5.90;3.57;;;12.70;99.90;;;;;;5014892;28;20473;-74
2023/05/25 01:07:58;;;;;;;5.43;3.47;;;12.60;99.90;;;;;;5015252;28;20776;-74
2023/05/25 01:10:25;;;;;;;9.27;4.27;;;12.60;99.90;;;;;;5015157;28;20459;-74
2023/05/25 01:12:54;;;;;;;5.53;3.20;;;12.50;99.90;;;;;;4997262;28;20513;-75
2023/05/25 01:15:19;;;;;;;8.10;4.30;;;12.40;99.90;;;;;;5015108;28;20427;-73
2023/05/25 01:17:47;;;;;;;6.20;3.20;;;12.30;99.90;;;;;;5025282;28;20786;-74
2023/05/25 01:20:12;;;;;;;8.90;3.93;;;12.30;99.90;;;;;;5034965;28;20198;-74
2023/05/25 01:22:50;;;;;;;6.93;4.10;;;12.20;99.90;;;;;;5036065;28;20512;-74
2023/05/25 01:25:24;;;;;;;8.60;4.10;;;12.10;99.90;;;;;;5035657;28;20680;-75
2023/05/25 01:28:20;;;;;;;5.60;3.90;;;12.10;99.90;;;;;;5033677;28;20507;-75
2023/05/25 01:30:48;;;;;;;7.57;4.03;;;12.10;99.90;;;;;;5015330;28;20399;-75
2023/05/25 01:33:17;;;;;;;7.50;4.20;;;11.90;99.90;;;;;;5015105;28;20407;-74
2023/05/25 01:35:44;;;;;;;9.50;4.40;;;11.80;99.90;;;;;;5014522;28;20453;-74
2023/05/25 01:38:10;;;;;;;8.33;4.40;;;11.80;99.90;;;;;;5014657;28;20488;-74
2023/05/25 01:40:35;;;;;;;11.07;4.50;;;11.70;99.90;;;;;;5015091;28;20455;-74
2023/05/25 01:43:01;;;;;;;7.77;4.30;;;11.70;99.90;;;;;;4997551;28;20889;-74
2023/05/25 01:45:27;;;;;;;5.67;3.70;;;11.70;99.90;;;;;;5016342;28;20199;-73
2023/05/25 01:48:20;;;;;;;7.40;4.33;;;11.60;99.90;;;;;;4997565;28;20653;-74
2023/05/25 01:51:12;;;;;;;5.63;3.33;;;11.50;99.90;;;;;;5014281;28;20777;-75
2023/05/25 01:54:06;;;;;;;5.53;3.80;;;11.50;99.90;;;;;;5014314;28;20967;-74
2023/05/25 01:56:33;;;;;;;7.60;3.60;;;11.40;99.90;;;;;;5015970;28;20945;-74
2023/05/25 01:59:01;;;;;;;6.37;3.60;;;11.40;99.90;;;;;;5033826;28;20759;-74
2023/05/25 02:01:27;;;;;;;7.93;4.20;;;11.40;99.90;;;;;;5034172;28;20418;-74
2023/05/25 02:03:53;;;;;;;8.77;4.90;;;11.50;99.90;;;;;;5033820;28;20439;-73
2023/05/25 02:06:19;;;;;;;8.30;4.20;;;11.30;99.90;;;;;;5033689;28;20480;-74
2023/05/25 02:08:45;;;;;;;11.63;5.03;;;11.20;99.90;;;;;;5016098;28;20258;-74
2023/05/25 02:11:13;;;;;;;8.47;4.47;;;11.10;99.90;;;;;;5033775;28;20175;-74
2023/05/25 02:13:39;;;;;;;5.63;4.70;;;11.10;99.90;;;;;;5015696;28;20176;-74
2023/05/25 02:16:05;;;;;;;6.00;4.40;;;11.00;99.90;;;;;;5033579;28;20434;-74
2023/05/25 02:18:31;;;;;;;7.43;4.37;;;11.00;99.90;;;;;;5033791;28;20406;-74
2023/05/25 02:20:56;;;;;;;9.30;4.33;;;11.00;99.90;;;;;;5033177;28;20450;-74
2023/05/25 02:23:22;;;;;;;4.10;3.53;;;11.00;99.90;;;;;;5034050;28;20161;-72
2023/05/25 02:25:48;;;;;;;6.10;4.23;;;11.00;99.90;;;;;;5015846;28;20194;-74
2023/05/25 02:28:14;;;;;;;8.37;4.83;;;11.00;99.90;;;;;;5033202;28;20168;-74
2023/05/25 02:30:39;;;;;;;8.70;4.37;;;10.80;99.90;;;;;;5015779;28;20171;-74
2023/05/25 02:33:05;;;;;;;7.63;4.70;;;10.70;99.90;;;;;;5033434;28;20418;-74
2023/05/25 02:35:31;;;;;;;8.80;4.83;;;10.40;99.90;;;;;;5032926;28;20234;-74
2023/05/25 02:37:56;;;;;;;10.47;5.03;;;10.50;99.90;;;;;;5033299;28;20407;-74
2023/05/25 02:40:22;;;;;;;10.80;4.67;;;10.50;99.90;;;;;;5033318;28;20195;-74
2023/05/25 02:42:48;;;;;;;8.50;5.07;;;10.50;99.90;;;;;;5033023;28;20174;-74
2023/05/25 02:45:14;;;;;;;7.73;4.53;;;10.50;99.90;;;;;;5015663;28;20509;-75
2023/05/25 02:47:39;;;;;;;6.70;4.50;;;10.50;99.90;;;;;;5033360;28;20172;-74
2023/05/25 02:50:05;;;;;;;7.43;4.70;;;10.50;99.90;;;;;;5032963;28;20280;-73
2023/05/25 02:52:31;;;;;;;8.53;4.47;;;10.50;99.90;;;;;;5032618;28;20172;-73
2023/05/25 02:54:57;;;;;;;7.20;4.13;;;10.50;99.90;;;;;;5033314;28;20423;-74
2023/05/25 02:57:22;;;;;;;8.33;4.40;;;10.50;99.90;;;;;;5033329;28;20186;-72
2023/05/25 02:59:48;;;;;;;8.40;5.10;;;10.50;99.90;;;;;;5017706;28;20280;-74
2023/05/25 03:02:17;;;;;;;5.40;4.90;;;10.60;99.90;;;;;;5033288;28;20167;-74
2023/05/25 03:04:48;;;;;;;9.87;4.80;;;10.60;99.90;;;;;;5015257;28;20440;-74
2023/05/25 03:07:14;;;;;;;8.00;5.03;;;10.60;99.90;;;;;;5032802;28;20425;-74
2023/05/25 03:09:39;;;;;;;9.67;5.50;;;10.60;99.90;;;;;;5033492;28;20916;-72
2023/05/25 03:12:05;;;;;;;7.03;4.90;;;10.50;99.90;;;;;;5033291;28;20529;-74
2023/05/25 03:14:31;;;;;;;8.07;4.37;;;10.50;99.90;;;;;;5032779;28;20177;-74
2023/05/25 03:16:56;;;;;;;9.40;4.53;;;10.40;99.90;;;;;;5033361;28;20167;-74
2023/05/25 03:19:22;;;;;;;7.67;4.37;;;10.30;99.90;;;;;;5032699;28;20260;-74
2023/05/25 03:21:47;;;;;;;10.63;4.70;;;10.40;99.90;;;;;;5033045;28;20167;-74
2023/05/25 03:24:13;;;;;;;6.73;4.90;;;10.40;99.90;;;;;;5029694;28;20384;-74
2023/05/25 03:26:39;;;;;;;8.60;4.93;;;10.40;99.90;;;;;;5018055;28;20275;-74
2023/05/25 03:29:05;;;;;;;7.73;4.60;;;10.20;99.90;;;;;;5033234;28;20167;-74
2023/05/25 03:31:31;;;;;;;9.50;5.00;;;10.30;99.90;;;;;;5015936;28;20429;-74
2023/05/25 03:33:57;;;;;;;9.47;5.13;;;10.20;99.90;;;;;;5033983;28;20407;-74
2023/05/25 03:36:26;;;;;;;6.77;4.60;;;10.10;99.90;;;;;;5033329;28;20243;-73
2023/05/25 03:38:52;;;;;;;9.07;5.07;;;10.20;99.90;;;;;;5015813;28;20550;-74
2023/05/25 03:41:17;;;;;;;10.23;5.67;;;10.00;99.90;;;;;;5033360;28;20446;-74
2023/05/25 03:43:43;;;;;;;6.90;4.90;;;10.10;99.90;;;;;;5035021;28;20439;-74
2023/05/25 03:46:10;;;;;;;10.17;5.40;;;10.20;99.90;;;;;;5033908;28;20260;-74
2023/05/25 03:48:36;;;;;;;6.83;4.67;;;10.30;99.90;;;;;;5016179;28;20178;-74
2023/05/25 03:51:01;;;;;;;16.33;5.40;;;10.40;99.90;;;;;;5034359;28;20501;-75
2023/05/25 03:53:27;;;;;;;7.47;4.87;;;10.40;99.90;;;;;;5035763;28;20179;-74
2023/05/25 03:55:53;;;;;;;8.20;5.30;;;10.50;99.90;;;;;;5035965;28;20187;-74
2023/05/25 03:58:18;;;;;;;8.30;5.10;;;10.50;99.90;;;;;;5018314;28;20185;-74
2023/05/25 04:00:44;;;;;;;15.00;6.77;;;10.50;99.90;;;;;;5036495;28;20195;-75
2023/05/25 04:03:09;;;;;;;9.50;6.07;;;10.40;99.90;;;;;;5019896;28;20178;-74
2023/05/25 04:05:35;;;;;;;7.90;5.47;;;10.40;99.90;;;;;;5050004;28;20206;-73
2023/05/25 04:08:02;;;;;;;6.93;4.93;;;10.40;99.90;;;;;;5041600;28;20220;-75
2023/05/25 04:10:27;;;;;;;9.07;5.03;;;10.50;99.90;;;;;;5059869;28;20398;-75
2023/05/25 04:12:55;;;;;;;9.10;4.70;;;10.40;99.90;;;;;;5059481;28;20482;-75
2023/05/25 04:15:21;;;;;;;7.87;5.80;;;10.40;99.90;;;;;;5059727;28;20213;-74
2023/05/25 04:17:47;;;;;;;9.90;5.53;;;10.40;99.90;;;;;;5058954;28;20420;-75
2023/05/25 04:20:12;;;;;;;11.43;6.40;;;10.20;99.90;;;;;;5058760;28;20445;-74
2023/05/25 04:22:38;;;;;;;9.40;5.67;;;10.40;99.90;;;;;;5058764;28;20183;-74
2023/05/25 04:25:07;;;;;;;10.20;5.57;;;10.40;99.90;;;;;;5058227;28;20250;-75
2023/05/25 04:27:32;;;;;;;9.87;5.73;;;10.50;99.90;;;;;;5041773;28;20174;-76
2023/05/25 04:29:58;;;;;;;9.53;5.73;;;10.60;99.90;;;;;;5059327;28;20400;-76
2023/05/25 04:32:23;;;;;;;8.63;5.47;;;10.60;99.90;;;;;;5046954;28;20185;-75
2023/05/25 04:34:49;;;;;;;9.70;6.60;;;10.70;99.90;;;;;;5057473;23;20211;-74
2023/05/25 04:37:16;;;;;;;8.23;6.00;;;10.70;99.90;;;;;;5036511;28;20274;-75
2023/05/25 04:39:41;;;;;;;6.83;5.40;;;10.70;99.90;;;;;;5037016;28;20495;-74
2023/05/25 04:42:07;;;;;;;9.33;6.13;;;10.70;99.90;;;;;;5018472;28;20804;-74
2023/05/25 04:44:32;;;;;;;9.40;5.60;;;10.90;99.90;;;;;;5018260;28;20198;-74
2023/05/25 04:46:58;;;;;;;10.20;6.40;;;11.00;99.90;;;;;;5036685;28;20704;-75
2023/05/25 04:49:25;;;;;;;11.80;6.17;;;11.10;99.90;;;;;;5035416;28;20170;-74
2023/05/25 04:51:51;;;;;;;11.77;6.70;;;11.10;99.90;;;;;;5035512;28;20171;-76
2023/05/25 04:54:17;;;;;;;10.73;5.37;;;11.10;99.90;;;;;;5035586;28;20818;-75
2023/05/25 04:56:43;;;;;;;13.40;6.80;;;11.20;99.90;;;;;;5035482;28;20198;-74
2023/05/25 04:59:09;;;;;;;11.23;6.00;;;11.40;99.90;;;;;;5035334;28;20462;-75
2023/05/25 05:01:39;;;;;;;9.40;5.70;;;11.50;99.90;;;;;;5034241;28;20927;-75
2023/05/25 05:04:05;;;;;;;11.43;6.30;;;11.60;99.90;;;;;;5008529;28;20422;-76
2023/05/25 05:06:31;;;;;;;10.13;5.93;;;11.60;99.90;;;;;;5015487;28;20426;-75
2023/05/25 05:08:57;;;;;;;11.00;6.43;;;11.70;99.90;;;;;;5015561;28;20433;-75
2023/05/25 05:11:22;;;;;;;9.40;5.63;;;11.90;99.90;;;;;;5015488;28;20651;-75
2023/05/25 05:13:48;;;;;;;16.37;6.60;;;11.90;99.90;;;;;;4997107;28;20176;-75
2023/05/25 05:16:13;;;;;;;8.83;6.50;;;12.00;99.90;;;;;;4997601;28;20283;-75
2023/05/25 05:18:39;;;;;;;14.57;6.63;;;12.00;99.90;;;;;;5019677;28;20720;-75
2023/05/25 05:21:05;;;;;;;12.53;7.67;;;12.00;99.90;;;;;;5035188;28;20194;-74
2023/05/25 05:23:32;;;;;;;7.87;5.93;;;12.20;99.90;;;;;;5035120;28;20178;-75
2023/05/25 05:25:58;;;;;;;12.83;6.63;;;11.90;99.90;;;;;;5016980;28;20191;-75
2023/05/25 05:28:26;;;;;;;7.33;5.30;;;11.80;99.90;;;;;;5018261;28;20407;-74
2023/05/25 05:30:52;;;;;;;9.20;6.43;;;12.10;99.90;;;;;;5015057;28;20671;-74
2023/05/25 05:33:17;;;;;;;9.60;5.77;;;12.20;99.90;;;;;;5022813;28;20422;-75
2023/05/25 05:35:43;;;;;;;12.40;6.17;;;12.20;99.90;;;;;;5017025;28;20979;-75
2023/05/25 05:38:09;;;;;;;13.13;6.43;;;12.10;99.90;;;;;;5034637;28;20646;-75
2023/05/25 05:40:35;;;;;;;10.83;5.93;;;12.30;99.90;;;;;;5034194;28;20253;-75
2023/05/25 05:43:01;;;;;;;9.90;6.23;;;12.40;99.90;;;;;;5034481;28;20421;-75
2023/05/25 05:45:26;;;;;;;7.47;5.57;;;12.30;99.90;;;;;;5034891;28;20266;-75
2023/05/25 05:47:52;;;;;;;21.07;7.20;;;12.20;99.90;;;;;;5034987;28;20207;-74
2023/05/25 05:50:17;;;;;;;11.30;6.60;;;12.30;99.90;;;;;;5034495;28;20523;-75
2023/05/25 05:52:43;;;;;;;13.30;8.37;;;12.30;99.90;;;;;;5034489;28;20198;-75
2023/05/25 05:55:08;;;;;;;10.40;6.50;;;12.50;99.90;;;;;;5034763;28;20624;-75
2023/05/25 05:57:34;;;;;;;11.03;6.97;;;12.40;99.90;;;;;;5034334;28;20165;-75
2023/05/25 05:59:59;;;;;;;8.93;6.20;;;12.30;99.90;;;;;;5034695;28;20195;-75
2023/05/25 06:02:25;;;;;;;13.50;6.80;;;12.30;99.90;;;;;;5034201;28;20178;-75
2023/05/25 06:04:51;;;;;;;11.20;6.00;;;12.20;99.90;;;;;;5033938;28;20176;-76
2023/05/25 06:07:16;;;;;;;10.53;6.50;;;12.30;99.90;;;;;;5033913;28;20171;-74
2023/05/25 06:09:42;;;;;;;11.63;6.30;;;12.50;99.90;;;;;;5033966;28;20172;-74
2023/05/25 06:12:08;;;;;;;11.20;7.23;;;12.50;99.90;;;;;;5034131;28;20601;-75
2023/05/25 06:14:33;;;;;;;12.30;6.70;;;12.60;99.90;;;;;;5033891;28;20174;-75
2023/05/25 06:16:59;;;;;;;8.20;6.03;;;12.60;99.90;;;;;;5033590;28;20440;-74
2023/05/25 06:19:24;;;;;;;11.67;7.20;;;12.50;99.90;;;;;;5033485;28;20196;-74
2023/05/25 06:21:50;;;;;;;10.90;7.30;;;12.70;99.90;;;;;;5033456;28;20632;-75
2023/05/25 06:24:15;;;;;;;8.67;6.50;;;12.90;99.90;;;;;;5033627;28;20665;-74
2023/05/25 06:26:41;;;;;;;12.07;6.77;;;12.80;99.90;;;;;;5022940;28;20195;-75
2023/05/25 06:29:06;;;;;;;12.00;6.50;;;12.90;99.90;;;;;;5013796;28;20176;-74
2023/05/25 06:31:32;;;;;;;8.07;5.60;;;12.90;99.90;;;;;;4996200;28;20181;-76
2023/05/25 06:33:57;;;;;;;11.50;7.07;;;13.00;99.90;;;;;;5013354;28;20573;-74
2023/05/25 06:36:23;;;;;;;11.43;6.80;;;13.30;99.90;;;;;;5013261;28;20672;-74
2023/05/25 06:38:49;;;;;;;9.70;6.73;;;13.20;99.90;;;;;;5014146;28;20546;-74
2023/05/25 06:41:14;;;;;;;11.20;7.27;;;13.20;99.90;;;;;;5014008;28;20578;-73
2023/05/25 06:43:41;;;;;;;17.33;7.10;;;13.30;99.90;;;;;;5013880;28;20221;-72
2023/05/25 06:46:09;;;;;;;10.07;6.60;;;13.30;99.90;;;;;;5003943;28;20223;-76
2023/05/25 06:48:34;;;;;;;13.23;7.37;;;13.30;99.90;;;;;;5033523;28;20398;-76
2023/05/25 06:51:00;;;;;;;13.33;7.90;;;13.30;99.90;;;;;;5033613;28;20501;-76
2023/05/25 06:53:25;;;;;;;8.10;6.73;;;13.40;99.90;;;;;;5033392;28;20177;-75
2023/05/25 06:55:51;;;;;;;10.00;7.03;;;13.50;99.90;;;;;;5033298;28;20191;-75
2023/05/25 06:58:17;;;;;;;11.57;6.40;;;13.50;99.90;;;;;;5015851;28;20231;-75
2023/05/25 07:00:42;;;;;;;11.13;6.67;;;13.60;99.90;;;;;;5034364;28;20201;-74
2023/05/25 07:03:08;;;;;;;11.60;6.83;;;13.70;99.90;;;;;;5010670;28;20182;-75
2023/05/25 07:05:33;;;;;;;10.60;7.10;;;13.70;99.90;;;;;;5013410;28;20195;-74
2023/05/25 07:07:59;;;;;;;11.13;6.90;;;13.80;99.90;;;;;;5013198;28;20265;-75
2023/05/25 07:10:24;;;;;;;13.67;7.53;;;13.90;99.90;;;;;;5013509;28;20259;-74
2023/05/25 07:12:50;;;;;;;8.00;6.23;;;14.00;99.90;;;;;;5013667;28;20182;-75
2023/05/25 07:15:15;;;;;;;13.93;7.47;;;14.00;99.90;;;;;;5013513;28;20193;-75
2023/05/25 07:17:41;;;;;;;10.27;7.40;;;14.10;99.90;;;;;;5013159;28;20184;-75
2023/05/25 07:20:07;;;;;;;10.43;7.00;;;14.20;99.90;;;;;;5014178;28;20262;-75
2023/05/25 07:22:33;;;;;;;13.67;7.53;;;14.30;99.90;;;;;;5013099;28;20542;-75
2023/05/25 07:24:59;;;;;;;8.90;6.60;;;14.20;99.90;;;;;;5022077;28;20501;-74
2023/05/25 07:27:24;;;;;;;13.87;7.47;;;14.40;99.90;;;;;;5032952;28;20253;-72
2023/05/25 07:29:50;;;;;;;17.40;7.90;;;14.40;99.90;;;;;;5033141;28;20263;-75
2023/05/25 07:32:15;;;;;;;10.73;7.50;;;14.70;99.90;;;;;;5033020;28;20173;-74
2023/05/25 07:34:41;;;;;;;13.50;7.90;;;15.20;99.90;;;;;;5050335;28;20191;-75
2023/05/25 07:37:06;;;;;;;19.20;8.10;;;15.30;99.90;;;;;;5053674;28;20647;-74
2023/05/25 07:39:32;;;;;;;10.83;7.10;;;15.40;99.90;;;;;;5057073;28;20655;-74
2023/05/25 07:41:57;;;;;;;13.73;7.53;;;15.00;99.90;;;;;;5056961;28;20331;-75
2023/05/25 07:44:23;;;;;;;13.13;7.50;;;15.30;99.90;;;;;;5056849;28;20170;-75
2023/05/25 07:46:49;;;;;;;13.90;7.70;;;15.50;99.90;;;;;;5057268;28;20182;-74
2023/05/25 07:49:17;;;;;;;11.67;6.77;;;15.40;99.90;;;;;;5056598;28;20179;-74
2023/05/25 07:51:44;;;;;;;11.53;7.80;;;15.40;99.90;;;;;;5056347;28;20200;-74
2023/05/25 07:54:10;;;;;;;13.00;8.13;;;15.50;99.90;;;;;;5056541;28;20415;-74
2023/05/25 07:56:36;;;;;;;11.53;8.30;;;15.50;99.90;;;;;;5056500;28;20425;-75
2023/05/25 07:59:02;;;;;;;9.87;7.53;;;15.70;99.90;;;;;;5056461;28;20519;-73
2023/05/25 08:01:28;;;;;;;11.03;7.90;;;15.70;99.90;;;;;;5056756;28;20985;-74
2023/05/25 08:03:54;;;;;;;9.80;7.50;;;15.90;99.90;;;;;;5045197;28;20189;-75
2023/05/25 08:06:19;;;;;;;11.73;7.70;;;15.90;99.90;;;;;;5036809;28;20187;-74
2023/05/25 08:08:45;;;;;;;12.30;8.00;;;15.70;99.90;;;;;;5036765;28;20427;-75
2023/05/25 08:11:11;;;;;;;12.03;7.10;;;15.70;99.90;;;;;;5037085;28;20229;-74
2023/05/25 08:13:37;;;;;;;8.27;6.93;;;15.70;99.90;;;;;;5037024;28;20782;-75
2023/05/25 08:16:03;;;;;;;13.93;8.10;;;15.80;99.90;;;;;;5019306;28;20495;-75
2023/05/25 08:18:30;;;;;;;9.63;7.90;;;15.90;99.90;;;;;;5019312;28;20413;-75
2023/05/25 08:20:56;;;;;;;18.47;8.27;;;15.90;99.90;;;;;;5019436;28;20290;-75
2023/05/25 08:23:21;;;;;;;12.53;8.00;;;16.00;99.90;;;;;;5036063;28;20856;-75
2023/05/25 08:25:47;;;;;;;14.77;8.00;;;15.90;99.90;;;;;;5036214;28;20426;-75
2023/05/25 08:28:12;;;;;;;14.47;9.87;;;15.70;99.90;;;;;;5036266;28;20181;-75
2023/05/25 08:30:38;;;;;;;12.43;8.13;;;15.60;99.90;;;;;;5036164;28;20270;-75
2023/05/25 08:33:04;;;;;;;12.70;8.87;;;15.80;99.90;;;;;;5031337;28;20245;-74
2023/05/25 08:35:29;;;;;;;12.17;7.90;;;15.70;99.90;;;;;;5015875;28;20692;-76
2023/05/25 08:37:55;;;;;;;13.73;7.53;;;15.80;99.90;;;;;;5015979;28;20191;-75
2023/05/25 08:40:25;;;;;;;12.70;9.00;;;15.70;99.90;;;;;;5015979;28;20788;-75
2023/05/25 08:42:51;;;;;;;10.20;8.50;;;15.80;99.90;;;;;;5016406;28;20670;-75
2023/05/25 08:45:16;;;;;;;11.60;8.47;;;16.00;99.90;;;;;;5016197;28;20470;-76
2023/05/25 08:47:43;;;;;;;13.37;9.23;;;16.50;99.90;;;;;;5016234;28;20540;-75
2023/05/25 08:50:11;;;;;;;18.87;8.60;;;16.70;99.90;;;;;;5014769;28;20169;-76
2023/05/25 08:52:42;;;;;;;10.50;8.07;;;16.90;99.90;;;;;;5015658;28;20442;-76
2023/05/25 08:55:09;;;;;;;13.03;8.50;;;17.20;99.90;;;;;;5015695;28;20440;-76
2023/05/25 08:57:44;;;;;;;10.90;8.57;;;16.90;99.90;;;;;;4998229;28;20419;-76
2023/05/25 09:00:14;;;;;;;11.53;7.97;;;17.00;99.90;;;;;;4998082;28;20458;-76
2023/05/25 09:02:56;;;;;;;10.80;7.00;;;17.30;99.90;;;;;;5015795;28;20815;-76
2023/05/25 09:05:23;;;;;;;13.60;7.43;;;17.70;99.90;;;;;;5016170;28;20474;-76
2023/05/25 09:07:50;;;;;;;13.40;8.43;;;18.00;99.90;;;;;;5015515;28;20408;-75
2023/05/25 09:10:16;;;;;;;12.73;9.23;;;17.70;99.90;;;;;;5015696;28;20473;-75
2023/05/25 09:12:42;;;;;;;12.47;8.57;;;17.30;99.90;;;;;;5015646;28;20414;-75
2023/05/25 09:15:11;;;;;;;11.00;7.93;;;17.50;99.90;;;;;;5015679;28;20439;-75
2023/05/25 09:17:38;;;;;;;15.10;8.80;;;17.80;99.90;;;;;;5015834;28;20446;-75
2023/05/25 09:20:04;;;;;;;9.90;8.03;;;17.80;99.90;;;;;;5015155;28;20461;-75
2023/05/25 09:22:30;;;;;;;11.30;8.03;;;17.90;99.90;;;;;;5015078;28;20793;-75
2023/05/25 09:24:55;;;;;;;14.07;9.13;;;18.10;99.90;;;;;;5015754;28;20415;-76
2023/05/25 09:27:22;;;;;;;13.77;8.67;;;18.10;99.90;;;;;;5015183;28;20223;-75
2023/05/25 09:29:49;;;;;;;14.87;8.80;;;18.10;99.90;;;;;;5015233;28;20172;-75
2023/05/25 09:32:17;;;;;;;11.50;8.90;;;18.10;99.90;;;;;;5015109;28;20406;-75
2023/05/25 09:34:47;;;;;;;11.70;7.87;;;18.40;99.90;;;;;;5029879;28;20521;-74
2023/05/25 09:37:15;;;;;;;11.80;7.90;;;18.60;99.90;;;;;;5034293;28;20433;-75
2023/05/25 09:39:42;;;;;;;11.87;7.80;;;18.80;99.90;;;;;;5034733;28;20452;-75
2023/05/25 09:42:07;;;;;;;13.20;8.03;;;19.10;99.90;;;;;;5035071;28;20804;-74
2023/05/25 09:44:33;;;;;;;10.30;8.03;;;19.30;99.90;;;;;;5034422;28;20521;-75
2023/05/25 09:46:59;;;;;;;13.07;8.20;;;19.30;99.90;;;;;;5034731;28;20270;-74
2023/05/25 09:49:25;;;;;;;10.47;7.53;;;19.20;99.90;;;;;;5034420;28;20182;-74
2023/05/25 09:51:51;;;;;;;11.97;8.50;;;19.10;99.90;;;;;;5034508;28;20250;-75
2023/05/25 09:54:17;;;;;;;10.40;7.57;;;19.10;99.90;;;;;;5034490;28;20416;-75
2023/05/25 09:56:44;;;;;;;12.60;7.97;;;19.30;99.90;;;;;;5034339;28;20821;-74
2023/05/25 09:59:11;;;;;;;11.17;7.40;;;19.40;99.90;;;;;;5034496;28;20570;-74
2023/05/25 10:01:36;;;;;;;9.63;7.50;;;19.90;99.90;;;;;;5034252;28;20904;-75
2023/05/25 10:04:02;;;;;;;11.13;7.80;;;20.20;99.90;;;;;;5021905;28;20411;-77
2023/05/25 10:06:27;;;;;;;10.33;8.07;;;19.80;99.90;;;;;;5014345;28;20188;-76
2023/05/25 10:08:56;;;;;;;11.30;7.77;;;20.00;99.90;;;;;;5014554;28;20176;-76
2023/05/25 10:11:23;;;;;;;10.73;7.97;;;20.10;99.90;;;;;;4997024;28;20176;-77
2023/05/25 10:13:52;;;;;;;13.50;7.37;;;19.80;99.90;;;;;;4997005;28;20426;-76
2023/05/25 10:16:21;;;;;;;9.37;7.17;;;20.00;99.90;;;;;;5014559;28;20937;-76
2023/05/25 10:19:02;;;;;;;11.60;8.37;;;20.10;99.90;;;;;;5014267;28;20418;-75
2023/05/25 10:21:30;;;;;;;11.30;7.70;;;20.00;99.90;;;;;;5014438;28;20478;-76
2023/05/25 10:24:05;;;;;;;9.83;6.97;;;19.90;99.90;;;;;;5014525;28;21009;-76
2023/05/25 10:26:35;;;;;;;11.10;7.57;;;20.30;99.90;;;;;;5014462;28;20421;-74
2023/05/25 10:29:03;;;;;;;10.37;7.27;;;20.60;99.90;;;;;;5014193;28;20419;-76
2023/05/25 10:31:32;;;;;;;9.47;7.00;;;20.70;99.90;;;;;;5014344;28;20417;-76
2023/05/25 10:33:58;;;;;;;8.80;7.13;;;20.70;99.90;;;;;;5025492;28;20426;-76
2023/05/25 10:36:25;;;;;;;10.73;6.97;;;20.50;99.90;;;;;;5046167;23;20508;-75
2023/05/25 10:38:50;;;;;;;9.80;6.97;;;20.70;99.90;;;;;;5033469;28;20159;-76
2023/05/25 10:41:18;;;;;;;8.87;6.87;;;21.10;99.50;;;;;;5033556;28;20811;-76
2023/05/25 10:43:44;;;;;;;10.23;7.47;;;21.60;99.20;;;;;;5033395;28;20212;-75
2023/05/25 10:46:11;;;;;;;11.20;7.70;;;21.50;98.80;;;;;;5033345;28;20759;-76
2023/05/25 10:48:38;;;;;;;10.80;7.30;;;21.40;99.00;;;;;;5032848;28;21010;-76
2023/05/25 10:51:05;;;;;;;11.10;6.90;;;21.80;98.70;;;;;;5033417;28;20485;-76
2023/05/25 10:53:31;;;;;;;11.73;7.63;;;21.60;98.60;;;;;;5017625;28;20406;-75
2023/05/25 10:56:04;;;;;;;7.63;6.07;;;21.60;99.50;;;;;;5033504;28;20429;-76
2023/05/25 10:58:31;;;;;;;6.70;6.03;;;21.40;98.80;;;;;;5015421;28;20203;-75
2023/05/25 11:01:10;;;;;;;9.13;6.50;;;21.30;98.90;;;;;;5033266;28;20445;-76
2023/05/25 11:04:06;;;;;;;10.70;7.80;;;21.00;99.50;;;;;;5032991;28;20413;-74
2023/05/25 11:06:43;;;;;;;8.40;6.60;;;20.80;99.30;;;;;;5032599;28;20422;-74
2023/05/25 11:09:23;;;;;;;11.33;7.50;;;21.20;99.40;;;;;;5036823;28;20370;-79
2023/05/25 11:12:02;;;;;;;7.90;6.87;;;21.50;98.70;;;;;;5037886;28;20866;-80
2023/05/25 11:14:32;;;;;;;9.17;7.30;;;21.70;98.50;;;;;;5036468;28;20383;-79
2023/05/25 11:17:19;;;;;;;8.63;6.50;;;22.10;97.90;;;;;;5037231;28;20422;-79
2023/05/25 11:19:55;;;;;;;9.77;6.83;;;22.40;97.90;;;;;;5036859;28;20936;-79
2023/05/25 11:22:22;;;;;;;10.70;6.40;;;22.80;97.10;;;;;;5036756;28;20919;-79
2023/05/25 11:24:52;;;;;;;8.07;7.07;;;22.70;96.90;;;;;;5037765;28;20807;-80
2023/05/25 11:27:31;;;;;;;9.73;6.63;;;22.80;96.60;;;;;;5019761;28;20429;-80
2023/05/25 11:29:58;;;;;;;9.30;6.63;;;22.60;96.70;;;;;;5037241;28;20393;-80
2023/05/25 11:32:25;;;;;;;7.10;6.20;;;22.40;97.10;;;;;;5034595;28;20410;-81
2023/05/25 11:34:52;;;;;;;8.10;6.47;;;22.60;96.90;;;;;;5002339;28;20423;-78
2023/05/25 11:37:20;;;;;;;7.93;6.00;;;22.30;97.30;;;;;;4998580;28;20465;-79
2023/05/25 11:39:52;;;;;;;7.57;5.53;;;22.90;98.00;;;;;;4999682;28;20859;-80
2023/05/25 11:42:20;;;;;;;9.43;5.97;;;23.00;96.70;;;;;;5000511;28;20766;-80
2023/05/25 11:44:46;;;;;;;8.13;6.40;;;22.80;96.80;;;;;;5017299;28;20411;-79
2023/05/25 11:47:13;;;;;;;10.00;6.13;;;22.40;97.00;;;;;;5017076;28;20792;-79
2023/05/25 11:49:45;;;;;;;14.33;6.97;;;22.40;97.10;;;;;;5017075;28;20492;-80
2023/05/25 11:52:13;;;;;;;7.90;6.43;;;22.90;96.10;;;;;;5016770;28;20526;-80
2023/05/25 11:54:42;;;;;;;10.07;6.20;;;23.00;96.40;;;;;;5016554;28;20561;-79
2023/05/25 11:57:18;;;;;;;8.27;6.40;;;23.20;97.00;;;;;;5017128;28;20455;-79
2023/05/25 11:59:51;;;;;;;10.50;7.00;;;23.30;95.40;;;;;;4999784;28;20454;-80
2023/05/25 12:02:17;;;;;;;11.47;6.83;;;22.80;95.80;;;;;;5017700;28;20403;-80
2023/05/25 12:05:02;;;;;;;9.33;6.10;;;23.60;95.90;;;;;;5035073;28;20456;-80
2023/05/25 12:07:29;;;;;;;6.83;6.13;;;23.30;94.80;;;;;;5037080;28;20540;-81
2023/05/25 12:10:09;;;;;;;6.77;5.90;;;23.10;95.60;;;;;;5019079;28;20874;-80
2023/05/25 12:12:41;;;;;;;7.50;6.43;;;23.00;95.70;;;;;;5037227;28;20464;-79
2023/05/25 12:15:09;;;;;;;10.53;6.23;;;22.90;95.80;;;;;;5036844;28;20978;-80
2023/05/25 12:17:35;;;;;;;8.23;6.37;;;23.30;95.00;;;;;;5037346;28;20496;-77
2023/05/25 12:20:01;;;;;;;7.40;6.70;;;22.70;95.50;;;;;;5037406;28;20473;-80
2023/05/25 12:22:27;;;;;;;9.90;6.47;;;22.70;95.40;;;;;;5036849;28;20893;-79
2023/05/25 12:24:52;;;;;;;9.27;5.97;;;23.10;95.30;;;;;;5039498;28;20243;-80
2023/05/25 12:27:21;;;;;;;11.40;7.50;;;23.40;95.10;;;;;;5039485;28;20199;-80
2023/05/25 12:29:47;;;;;;;11.30;6.87;;;23.30;95.10;;;;;;5022017;28;20513;-79
2023/05/25 12:32:13;;;;;;;7.80;5.77;;;23.00;94.70;;;;;;5041243;28;20413;-80
2023/05/25 12:34:39;;;;;;;9.43;6.50;;;22.80;95.10;;;;;;5023228;28;20410;-81
2023/05/25 12:37:16;;;;;;;12.13;6.77;;;23.20;96.00;;;;;;5039779;28;20288;-81
2023/05/25 12:39:42;;;;;;;8.93;6.17;;;24.20;93.90;;;;;;5040626;28;20272;-79
2023/05/25 12:42:13;;;;;;;6.20;5.60;;;24.10;93.80;;;;;;5042827;28;20948;-79
2023/05/25 12:44:40;;;;;;;9.00;6.07;;;23.90;93.60;;;;;;5025725;28;20167;-80